PWSweather.com
Personal Weather Stations
Station Observations
KTXHOUST78
First Montrose Commons, Houston, TX 77006

First Montrose CommonsHouston, TX 77006

Lat: 29.7359886, Lon: -95.3870926

Elevation: 50

Station Type: Texas Weather Instruments WR-25

Latest ConditionsUpdated 2:20:03 PM CDT Saturday, Apr 20, 2019
Currently Today's Max Today's Min Today's Average
Temperature 76.0°F24.4°C 76.0°F24.4°C 50.0°F10.0°C 59.8°F15.4°C
Dew Point 45.6°F7.6°C 51.0°F10.6°C 40.4°F4.7°C 45.6°F7.6°C
Winds 5.0 mph W8.0 kmh W 5.0 mph -8.0 kmh - - 1.1 mph 1.8 kmh
Wind Gusts 6.0 mph9.7 kmh 7.0 mph11.3 kmh - -
Humidity 34% 89% 31% 63%
Pressure 30.07 in1018.3 mb 30.11 in1019.6 mb 30.04 in1017.3 mb -
Hour Temp Dew Point Humidity Winds Wind Gusts Pressure Precip Precip Rate Daily Precip Total
02:20 PM 76.0°F24.4°C 45.6°F7.6°C 34% 5.0 mph W8.0 kmh W 6.0 mph9.7 kmh 30.07 in1018.3 mb 0.00 in0.0 mm 0.00 in0.0 mm 0.00 in0.0 mm
02:10 PM 76.0°F24.4°C 44.9°F7.2°C 33% 2.0 mph WSW3.2 kmh WSW 3.0 mph4.8 kmh 30.08 in1018.6 mb 0.00 in0.0 mm 0.00 in0.0 mm 0.00 in0.0 mm
02:00 PM 76.0°F24.4°C 44.9°F7.2°C 33% 2.0 mph SE3.2 kmh SE 2.0 mph3.2 kmh 30.08 in1018.6 mb 0.00 in0.0 mm 0.00 in0.0 mm 0.00 in0.0 mm
01:50 PM 75.0°F23.9°C 42.4°F5.8°C 31% 2.0 mph WNW3.2 kmh WNW 2.0 mph3.2 kmh 30.08 in1018.6 mb 0.00 in0.0 mm 0.00 in0.0 mm 0.00 in0.0 mm
01:40 PM 75.0°F23.9°C 42.4°F5.8°C 31% 4.0 mph NNE6.4 kmh NNE 7.0 mph11.3 kmh 30.08 in1018.6 mb 0.00 in0.0 mm 0.00 in0.0 mm 0.00 in0.0 mm
01:30 PM 75.0°F23.9°C 44.8°F7.1°C 34% 3.0 mph W4.8 kmh W 3.0 mph4.8 kmh 30.09 in1019.0 mb 0.00 in0.0 mm 0.00 in0.0 mm 0.00 in0.0 mm
01:20 PM 75.0°F23.9°C 43.2°F6.2°C 32% 3.0 mph SSW4.8 kmh SSW 3.0 mph4.8 kmh 30.09 in1019.0 mb 0.00 in0.0 mm 0.00 in0.0 mm 0.00 in0.0 mm
01:10 PM 75.0°F23.9°C 44.0°F6.7°C 33% 3.0 mph SE4.8 kmh SE 4.0 mph6.4 kmh 30.09 in1019.0 mb 0.00 in0.0 mm 0.00 in0.0 mm 0.00 in0.0 mm
01:00 PM 75.0°F23.9°C 46.3°F7.9°C 36% 4.0 mph WNW6.4 kmh WNW 5.0 mph8.0 kmh 30.09 in1019.0 mb 0.00 in0.0 mm 0.00 in0.0 mm 0.00 in0.0 mm
12:50 PM 75.0°F23.9°C 45.5°F7.5°C 35% 3.0 mph NNW4.8 kmh NNW 3.0 mph4.8 kmh 30.09 in1019.0 mb 0.00 in0.0 mm 0.00 in0.0 mm 0.00 in0.0 mm
12:40 PM 74.0°F23.3°C 44.6°F7.0°C 35% 2.0 mph SW3.2 kmh SW 2.0 mph3.2 kmh 30.10 in1019.3 mb 0.00 in0.0 mm 0.00 in0.0 mm 0.00 in0.0 mm
12:30 PM 74.0°F23.3°C 45.4°F7.4°C 36% 3.0 mph SW4.8 kmh SW 5.0 mph8.0 kmh 30.10 in1019.3 mb 0.00 in0.0 mm 0.00 in0.0 mm 0.00 in0.0 mm
12:20 PM 73.0°F22.8°C 45.9°F7.7°C 38% 4.0 mph W6.4 kmh W 4.0 mph6.4 kmh 30.10 in1019.3 mb 0.00 in0.0 mm 0.00 in0.0 mm 0.00 in0.0 mm
12:10 PM 73.0°F22.8°C 43.8°F6.6°C 35% 4.0 mph SE6.4 kmh SE 5.0 mph8.0 kmh 30.10 in1019.3 mb 0.00 in0.0 mm 0.00 in0.0 mm 0.00 in0.0 mm
12:00 PM 73.0°F22.8°C 40.6°F4.8°C 31% 4.0 mph SSW6.4 kmh SSW 4.0 mph6.4 kmh 30.11 in1019.6 mb 0.00 in0.0 mm 0.00 in0.0 mm 0.00 in0.0 mm
11:50 AM 73.0°F22.8°C 42.2°F5.7°C 33% 2.0 mph SSE3.2 kmh SSE 3.0 mph4.8 kmh 30.11 in1019.6 mb 0.00 in0.0 mm 0.00 in0.0 mm 0.00 in0.0 mm
11:40 AM 72.0°F22.2°C 43.6°F6.4°C 36% 5.0 mph SSW8.0 kmh SSW 7.0 mph11.3 kmh 30.11 in1019.6 mb 0.00 in0.0 mm 0.00 in0.0 mm 0.00 in0.0 mm
11:30 AM 71.0°F21.7°C 43.4°F6.3°C 37% 1.0 mph WNW1.6 kmh WNW 1.0 mph1.6 kmh 30.11 in1019.6 mb 0.00 in0.0 mm 0.00 in0.0 mm 0.00 in0.0 mm
11:20 AM 70.0°F21.1°C 40.4°F4.7°C 34% 2.0 mph SSE3.2 kmh SSE 2.0 mph3.2 kmh 30.11 in1019.6 mb 0.00 in0.0 mm 0.00 in0.0 mm 0.00 in0.0 mm
11:10 AM 70.0°F21.1°C 45.9°F7.7°C 42% 3.0 mph WNW4.8 kmh WNW 4.0 mph6.4 kmh 30.11 in1019.6 mb 0.00 in0.0 mm 0.00 in0.0 mm 0.00 in0.0 mm
11:00 AM 69.0°F20.6°C 44.3°F6.8°C 41% 2.0 mph 3.2 kmh 2.0 mph3.2 kmh 30.11 in1019.6 mb 0.00 in0.0 mm 0.00 in0.0 mm 0.00 in0.0 mm
10:50 AM 68.0°F20.0°C 44.7°F7.1°C 43% 2.0 mph 3.2 kmh 3.0 mph4.8 kmh 30.11 in1019.6 mb 0.00 in0.0 mm 0.00 in0.0 mm 0.00 in0.0 mm
10:40 AM 68.0°F20.0°C 45.3°F7.4°C 44% Calm Calm 1.0 mph1.6 kmh 30.11 in1019.6 mb 0.00 in0.0 mm 0.00 in0.0 mm 0.00 in0.0 mm
10:30 AM 67.0°F19.4°C 43.8°F6.6°C 43% 2.0 mph ENE3.2 kmh ENE 3.0 mph4.8 kmh 30.11 in1019.6 mb 0.00 in0.0 mm 0.00 in0.0 mm 0.00 in0.0 mm
10:20 AM 66.0°F18.9°C 40.4°F4.7°C 39% 3.0 mph S4.8 kmh S 3.0 mph4.8 kmh 30.11 in1019.6 mb 0.00 in0.0 mm 0.00 in0.0 mm 0.00 in0.0 mm
10:10 AM 66.0°F18.9°C 47.4°F8.6°C 51% 3.0 mph SSW4.8 kmh SSW 3.0 mph4.8 kmh 30.11 in1019.6 mb 0.00 in0.0 mm 0.00 in0.0 mm 0.00 in0.0 mm
10:00 AM 65.0°F18.3°C 47.5°F8.6°C 53% 1.0 mph SSE1.6 kmh SSE 2.0 mph3.2 kmh 30.11 in1019.6 mb 0.00 in0.0 mm 0.00 in0.0 mm 0.00 in0.0 mm
09:50 AM 64.0°F17.8°C 48.5°F9.2°C 57% 1.0 mph WNW1.6 kmh WNW 1.0 mph1.6 kmh 30.11 in1019.6 mb 0.00 in0.0 mm 0.00 in0.0 mm 0.00 in0.0 mm
09:40 AM 63.0°F17.2°C 48.9°F9.4°C 60% 1.0 mph NE1.6 kmh NE 1.0 mph1.6 kmh 30.10 in1019.3 mb 0.00 in0.0 mm 0.00 in0.0 mm 0.00 in0.0 mm
09:30 AM 62.0°F16.7°C 49.3°F9.6°C 63% 1.0 mph WNW1.6 kmh WNW 1.0 mph1.6 kmh 30.10 in1019.3 mb 0.00 in0.0 mm 0.00 in0.0 mm 0.00 in0.0 mm
09:20 AM 61.0°F16.1°C 49.2°F9.6°C 65% 2.0 mph WNW3.2 kmh WNW 2.0 mph3.2 kmh 30.10 in1019.3 mb 0.00 in0.0 mm 0.00 in0.0 mm 0.00 in0.0 mm
09:10 AM 60.0°F15.6°C 49.4°F9.7°C 68% 1.0 mph SW1.6 kmh SW 3.0 mph4.8 kmh 30.10 in1019.3 mb 0.00 in0.0 mm 0.00 in0.0 mm 0.00 in0.0 mm
09:00 AM 60.0°F15.6°C 51.0°F10.6°C 72% 1.0 mph W1.6 kmh W 1.0 mph1.6 kmh 30.10 in1019.3 mb 0.00 in0.0 mm 0.00 in0.0 mm 0.00 in0.0 mm
08:50 AM 58.0°F14.4°C 49.8°F9.9°C 74% 1.0 mph SSW1.6 kmh SSW 1.0 mph1.6 kmh 30.09 in1019.0 mb 0.00 in0.0 mm 0.00 in0.0 mm 0.00 in0.0 mm
08:40 AM 57.0°F13.9°C 50.2°F10.1°C 78% Calm Calm 1.0 mph1.6 kmh 30.09 in1019.0 mb 0.00 in0.0 mm 0.00 in0.0 mm 0.00 in0.0 mm
08:30 AM 56.0°F13.3°C 50.9°F10.5°C 83% 1.0 mph ENE1.6 kmh ENE 2.0 mph3.2 kmh 30.09 in1019.0 mb 0.00 in0.0 mm 0.00 in0.0 mm 0.00 in0.0 mm
08:20 AM 54.0°F12.2°C 49.9°F9.9°C 86% 1.0 mph WSW1.6 kmh WSW 1.0 mph1.6 kmh 30.09 in1019.0 mb 0.00 in0.0 mm 0.00 in0.0 mm 0.00 in0.0 mm
08:10 AM 53.0°F11.7°C 49.2°F9.6°C 87% Calm Calm 1.0 mph1.6 kmh 30.08 in1018.6 mb 0.00 in0.0 mm 0.00 in0.0 mm 0.00 in0.0 mm
08:00 AM 51.0°F10.6°C 47.6°F8.7°C 88% 1.0 mph SSE1.6 kmh SSE 1.0 mph1.6 kmh 30.08 in1018.6 mb 0.00 in0.0 mm 0.00 in0.0 mm 0.00 in0.0 mm
07:50 AM 51.0°F10.6°C 47.6°F8.7°C 88% Calm Calm 1.0 mph1.6 kmh 30.08 in1018.6 mb 0.00 in0.0 mm 0.00 in0.0 mm 0.00 in0.0 mm
07:40 AM 51.0°F10.6°C 47.9°F8.8°C 89% 1.0 mph NE1.6 kmh NE 1.0 mph1.6 kmh 30.08 in1018.6 mb 0.00 in0.0 mm 0.00 in0.0 mm 0.00 in0.0 mm
07:30 AM 50.0°F10.0°C 46.9°F8.3°C 89% Calm Calm -- 30.08 in1018.6 mb 0.00 in0.0 mm 0.00 in0.0 mm 0.00 in0.0 mm
07:20 AM 50.0°F10.0°C 46.9°F8.3°C 89% Calm Calm -- 30.07 in1018.3 mb 0.00 in0.0 mm 0.00 in0.0 mm 0.00 in0.0 mm
07:10 AM 50.0°F10.0°C 46.3°F7.9°C 87% Calm Calm -- 30.06 in1017.9 mb 0.00 in0.0 mm 0.00 in0.0 mm 0.00 in0.0 mm
07:00 AM 50.0°F10.0°C 46.3°F7.9°C 87% 1.0 mph WSW1.6 kmh WSW 1.0 mph1.6 kmh 30.06 in1017.9 mb 0.00 in0.0 mm 0.00 in0.0 mm 0.00 in0.0 mm
06:50 AM 50.0°F10.0°C 45.7°F7.6°C 85% Calm Calm -- 30.06 in1017.9 mb 0.00 in0.0 mm 0.00 in0.0 mm 0.00 in0.0 mm
06:40 AM 50.0°F10.0°C 45.4°F7.4°C 84% 1.0 mph NE1.6 kmh NE 1.0 mph1.6 kmh 30.06 in1017.9 mb 0.00 in0.0 mm 0.00 in0.0 mm 0.00 in0.0 mm
06:30 AM 50.0°F10.0°C 45.4°F7.4°C 84% 1.0 mph SW1.6 kmh SW 1.0 mph1.6 kmh 30.06 in1017.9 mb 0.00 in0.0 mm 0.00 in0.0 mm 0.00 in0.0 mm
06:20 AM 51.0°F10.6°C 46.3°F7.9°C 84% Calm Calm -- 30.05 in1017.6 mb 0.00 in0.0 mm 0.00 in0.0 mm 0.00 in0.0 mm
06:10 AM 51.0°F10.6°C 46.0°F7.8°C 83% Calm Calm 1.0 mph1.6 kmh 30.05 in1017.6 mb 0.00 in0.0 mm 0.00 in0.0 mm 0.00 in0.0 mm
06:00 AM 51.0°F10.6°C 46.0°F7.8°C 83% 1.0 mph S1.6 kmh S 1.0 mph1.6 kmh 30.04 in1017.3 mb 0.00 in0.0 mm 0.00 in0.0 mm 0.00 in0.0 mm
05:50 AM 51.0°F10.6°C 45.7°F7.6°C 82% Calm Calm -- 30.04 in1017.3 mb 0.00 in0.0 mm 0.00 in0.0 mm 0.00 in0.0 mm
05:40 AM 51.0°F10.6°C 45.7°F7.6°C 82% Calm Calm -- 30.04 in1017.3 mb 0.00 in0.0 mm 0.00 in0.0 mm 0.00 in0.0 mm
05:30 AM 51.0°F10.6°C 45.1°F7.3°C 80% 1.0 mph NW1.6 kmh NW 1.0 mph1.6 kmh 30.04 in1017.3 mb 0.00 in0.0 mm 0.00 in0.0 mm 0.00 in0.0 mm
05:20 AM 51.0°F10.6°C 45.1°F7.3°C 80% Calm Calm -- 30.04 in1017.3 mb 0.00 in0.0 mm 0.00 in0.0 mm 0.00 in0.0 mm
05:10 AM 52.0°F11.1°C 45.7°F7.6°C 79% Calm Calm -- 30.04 in1017.3 mb 0.00 in0.0 mm 0.00 in0.0 mm 0.00 in0.0 mm
05:00 AM 52.0°F11.1°C 45.4°F7.4°C 78% 1.0 mph NW1.6 kmh NW 1.0 mph1.6 kmh 30.04 in1017.3 mb 0.00 in0.0 mm 0.00 in0.0 mm 0.00 in0.0 mm
04:50 AM 52.0°F11.1°C 45.4°F7.4°C 78% Calm Calm 1.0 mph1.6 kmh 30.04 in1017.3 mb 0.00 in0.0 mm 0.00 in0.0 mm 0.00 in0.0 mm
04:40 AM 52.0°F11.1°C 45.0°F7.2°C 77% Calm Calm -- 30.05 in1017.6 mb 0.00 in0.0 mm 0.00 in0.0 mm 0.00 in0.0 mm
04:30 AM 52.0°F11.1°C 45.0°F7.2°C 77% Calm Calm -- 30.04 in1017.3 mb 0.00 in0.0 mm 0.00 in0.0 mm 0.00 in0.0 mm
04:20 AM 52.0°F11.1°C 44.7°F7.1°C 76% Calm Calm 1.0 mph1.6 kmh 30.05 in1017.6 mb 0.00 in0.0 mm 0.00 in0.0 mm 0.00 in0.0 mm
04:10 AM 53.0°F11.7°C 45.7°F7.6°C 76% Calm Calm -- 30.05 in1017.6 mb 0.00 in0.0 mm 0.00 in0.0 mm 0.00 in0.0 mm
04:00 AM 53.0°F11.7°C 45.3°F7.4°C 75% Calm Calm -- 30.04 in1017.3 mb 0.00 in0.0 mm 0.00 in0.0 mm 0.00 in0.0 mm
03:50 AM 53.0°F11.7°C 45.3°F7.4°C 75% 1.0 mph WNW1.6 kmh WNW 1.0 mph1.6 kmh 30.04 in1017.3 mb 0.00 in0.0 mm 0.00 in0.0 mm 0.00 in0.0 mm
03:40 AM 53.0°F11.7°C 45.0°F7.2°C 74% Calm Calm 1.0 mph1.6 kmh 30.04 in1017.3 mb 0.00 in0.0 mm 0.00 in0.0 mm 0.00 in0.0 mm
03:30 AM 53.0°F11.7°C 45.0°F7.2°C 74% Calm Calm 1.0 mph1.6 kmh 30.04 in1017.3 mb 0.00 in0.0 mm 0.00 in0.0 mm 0.00 in0.0 mm
03:20 AM 53.0°F11.7°C 45.0°F7.2°C 74% Calm Calm -- 30.04 in1017.3 mb 0.00 in0.0 mm 0.00 in0.0 mm 0.00 in0.0 mm
03:10 AM 54.0°F12.2°C 45.6°F7.6°C 73% Calm Calm -- 30.04 in1017.3 mb 0.00 in0.0 mm 0.00 in0.0 mm 0.00 in0.0 mm
03:00 AM 54.0°F12.2°C 45.9°F7.7°C 74% Calm Calm 1.0 mph1.6 kmh 30.05 in1017.6 mb 0.00 in0.0 mm 0.00 in0.0 mm 0.00 in0.0 mm
02:50 AM 54.0°F12.2°C 45.6°F7.6°C 73% Calm Calm -- 30.04 in1017.3 mb 0.00 in0.0 mm 0.00 in0.0 mm 0.00 in0.0 mm
02:40 AM 54.0°F12.2°C 45.2°F7.3°C 72% Calm Calm -- 30.04 in1017.3 mb 0.00 in0.0 mm 0.00 in0.0 mm 0.00 in0.0 mm
02:30 AM 54.0°F12.2°C 44.8°F7.1°C 71% Calm Calm -- 30.04 in1017.3 mb 0.00 in0.0 mm 0.00 in0.0 mm 0.00 in0.0 mm
02:20 AM 55.0°F12.8°C 45.4°F7.4°C 70% 1.0 mph WNW1.6 kmh WNW 1.0 mph1.6 kmh 30.05 in1017.6 mb 0.00 in0.0 mm 0.00 in0.0 mm 0.00 in0.0 mm
02:10 AM 55.0°F12.8°C 45.4°F7.4°C 70% Calm Calm -- 30.05 in1017.6 mb 0.00 in0.0 mm 0.00 in0.0 mm 0.00 in0.0 mm
02:00 AM 55.0°F12.8°C 45.0°F7.2°C 69% Calm Calm -- 30.06 in1017.9 mb 0.00 in0.0 mm 0.00 in0.0 mm 0.00 in0.0 mm
01:50 AM 55.0°F12.8°C 44.7°F7.1°C 68% Calm Calm -- 30.06 in1017.9 mb 0.00 in0.0 mm 0.00 in0.0 mm 0.00 in0.0 mm
01:40 AM 56.0°F13.3°C 45.6°F7.6°C 68% Calm Calm -- 30.06 in1017.9 mb 0.00 in0.0 mm 0.00 in0.0 mm 0.00 in0.0 mm
01:30 AM 56.0°F13.3°C 45.2°F7.3°C 67% Calm Calm -- 30.06 in1017.9 mb 0.00 in0.0 mm 0.00 in0.0 mm 0.00 in0.0 mm
01:20 AM 56.0°F13.3°C 45.2°F7.3°C 67% 1.0 mph WNW1.6 kmh WNW 1.0 mph1.6 kmh 30.06 in1017.9 mb 0.00 in0.0 mm 0.00 in0.0 mm 0.00 in0.0 mm
01:10 AM 56.0°F13.3°C 44.8°F7.1°C 66% Calm Calm -- 30.06 in1017.9 mb 0.00 in0.0 mm 0.00 in0.0 mm 0.00 in0.0 mm
01:00 AM 57.0°F13.9°C 45.0°F7.2°C 64% Calm Calm -- 30.07 in1018.3 mb 0.00 in0.0 mm 0.00 in0.0 mm 0.00 in0.0 mm
12:50 AM 57.0°F13.9°C 45.0°F7.2°C 64% Calm Calm -- 30.07 in1018.3 mb 0.00 in0.0 mm 0.00 in0.0 mm 0.00 in0.0 mm
12:40 AM 57.0°F13.9°C 44.5°F6.9°C 63% Calm Calm -- 30.07 in1018.3 mb 0.00 in0.0 mm 0.00 in0.0 mm 0.00 in0.0 mm
12:30 AM 57.0°F13.9°C 44.1°F6.7°C 62% 1.0 mph WNW1.6 kmh WNW 1.0 mph1.6 kmh 30.07 in1018.3 mb 0.00 in0.0 mm 0.00 in0.0 mm 0.00 in0.0 mm
12:20 AM 58.0°F14.4°C 45.1°F7.3°C 62% 1.0 mph WNW1.6 kmh WNW 1.0 mph1.6 kmh 30.07 in1018.3 mb 0.00 in0.0 mm 0.00 in0.0 mm 0.00 in0.0 mm
12:10 AM 58.0°F14.4°C 44.6°F7.0°C 61% Calm Calm -- 30.07 in1018.3 mb 0.00 in0.0 mm 0.00 in0.0 mm 0.00 in0.0 mm
12:00 AM 59.0°F15.0°C 45.2°F7.3°C 60% Calm Calm -- 30.07 in1018.3 mb 0.00 in0.0 mm 0.00 in0.0 mm 0.00 in0.0 mm